sensor_id;sensor_type;location;lat;lon;timestamp;P1;P2;P0
46240;PMS5003;31961;52.416;-0.732;2022-08-07T00:00:03;7;6;
46240;PMS5003;31961;52.416;-0.732;2022-08-07T00:02:31;8;7;
46240;PMS5003;31961;52.416;-0.732;2022-08-07T00:04:59;5;5;
46240;PMS5003;31961;52.416;-0.732;2022-08-07T00:07:26;7;5;
46240;PMS5003;31961;52.416;-0.732;2022-08-07T00:09:54;7;6;
46240;PMS5003;31961;52.416;-0.732;2022-08-07T00:12:22;5;4;
46240;PMS5003;31961;52.416;-0.732;2022-08-07T00:14:49;5;5;
46240;PMS5003;31961;52.416;-0.732;2022-08-07T00:17:17;6;5;
46240;PMS5003;31961;52.416;-0.732;2022-08-07T00:19:44;6;6;
46240;PMS5003;31961;52.416;-0.732;2022-08-07T00:22:12;6;6;
46240;PMS5003;31961;52.416;-0.732;2022-08-07T00:24:39;6;6;
46240;PMS5003;31961;52.416;-0.732;2022-08-07T00:27:07;6;6;
46240;PMS5003;31961;52.416;-0.732;2022-08-07T00:29:35;7;6;
46240;PMS5003;31961;52.416;-0.732;2022-08-07T00:32:02;6;6;
46240;PMS5003;31961;52.416;-0.732;2022-08-07T00:34:31;6;6;
46240;PMS5003;31961;52.416;-0.732;2022-08-07T00:36:58;6;6;
46240;PMS5003;31961;52.416;-0.732;2022-08-07T00:39:26;6;6;
46240;PMS5003;31961;52.416;-0.732;2022-08-07T00:41:54;6;6;
46240;PMS5003;31961;52.416;-0.732;2022-08-07T00:44:23;5;5;
46240;PMS5003;31961;52.416;-0.732;2022-08-07T00:46:51;9;8;
46240;PMS5003;31961;52.416;-0.732;2022-08-07T00:49:18;7;7;
46240;PMS5003;31961;52.416;-0.732;2022-08-07T00:51:45;7;6;
46240;PMS5003;31961;52.416;-0.732;2022-08-07T00:54:13;4;4;
46240;PMS5003;31961;52.416;-0.732;2022-08-07T00:56:40;5;5;
46240;PMS5003;31961;52.416;-0.732;2022-08-07T00:59:08;6;6;
46240;PMS5003;31961;52.416;-0.732;2022-08-07T01:01:35;6;6;
46240;PMS5003;31961;52.416;-0.732;2022-08-07T01:04:04;6;5;
46240;PMS5003;31961;52.416;-0.732;2022-08-07T01:06:31;5;5;
46240;PMS5003;31961;52.416;-0.732;2022-08-07T01:08:59;5;4;
46240;PMS5003;31961;52.416;-0.732;2022-08-07T01:11:27;6;6;
46240;PMS5003;31961;52.416;-0.732;2022-08-07T01:13:56;6;4;
46240;PMS5003;31961;52.416;-0.732;2022-08-07T01:16:23;5;5;
46240;PMS5003;31961;52.416;-0.732;2022-08-07T01:18:51;6;5;
46240;PMS5003;31961;52.416;-0.732;2022-08-07T01:21:19;5;4;
46240;PMS5003;31961;52.416;-0.732;2022-08-07T01:23:47;5;3;
46240;PMS5003;31961;52.416;-0.732;2022-08-07T01:26:16;4;4;
46240;PMS5003;31961;52.416;-0.732;2022-08-07T01:28:44;5;5;
46240;PMS5003;31961;52.416;-0.732;2022-08-07T01:31:13;6;6;
46240;PMS5003;31961;52.416;-0.732;2022-08-07T01:33:42;6;4;
46240;PMS5003;31961;52.416;-0.732;2022-08-07T01:36:09;5;5;
46240;PMS5003;31961;52.416;-0.732;2022-08-07T01:38:38;4;4;
46240;PMS5003;31961;52.416;-0.732;2022-08-07T01:41:05;5;4;
46240;PMS5003;31961;52.416;-0.732;2022-08-07T01:43:34;4;4;
46240;PMS5003;31961;52.416;-0.732;2022-08-07T01:46:02;5;4;
46240;PMS5003;31961;52.416;-0.732;2022-08-07T01:48:29;8;7;
46240;PMS5003;31961;52.416;-0.732;2022-08-07T01:50:58;6;6;
46240;PMS5003;31961;52.416;-0.732;2022-08-07T01:53:28;5;5;
46240;PMS5003;31961;52.416;-0.732;2022-08-07T01:56:00;7;6;
46240;PMS5003;31961;52.416;-0.732;2022-08-07T01:58:32;4;4;
46240;PMS5003;31961;52.416;-0.732;2022-08-07T02:01:04;6;5;
46240;PMS5003;31961;52.416;-0.732;2022-08-07T02:03:37;5;5;
46240;PMS5003;31961;52.416;-0.732;2022-08-07T02:06:07;6;4;
46240;PMS5003;31961;52.416;-0.732;2022-08-07T02:08:39;5;4;
46240;PMS5003;31961;52.416;-0.732;2022-08-07T02:11:10;5;4;
46240;PMS5003;31961;52.416;-0.732;2022-08-07T02:13:39;6;5;
46240;PMS5003;31961;52.416;-0.732;2022-08-07T02:16:09;5;5;
46240;PMS5003;31961;52.416;-0.732;2022-08-07T02:18:38;5;4;
46240;PMS5003;31961;52.416;-0.732;2022-08-07T02:21:06;6;5;
46240;PMS5003;31961;52.416;-0.732;2022-08-07T02:23:35;8;7;
46240;PMS5003;31961;52.416;-0.732;2022-08-07T02:26:06;5;5;
46240;PMS5003;31961;52.416;-0.732;2022-08-07T02:28:35;6;6;
46240;PMS5003;31961;52.416;-0.732;2022-08-07T02:31:04;7;6;
46240;PMS5003;31961;52.416;-0.732;2022-08-07T02:33:33;5;5;
46240;PMS5003;31961;52.416;-0.732;2022-08-07T02:36:04;3;3;
46240;PMS5003;31961;52.416;-0.732;2022-08-07T02:38:34;7;6;
46240;PMS5003;31961;52.416;-0.732;2022-08-07T02:41:04;6;6;
46240;PMS5003;31961;52.416;-0.732;2022-08-07T02:43:31;6;5;
46240;PMS5003;31961;52.416;-0.732;2022-08-07T02:46:02;3;3;
46240;PMS5003;31961;52.416;-0.732;2022-08-07T02:48:31;8;7;
46240;PMS5003;31961;52.416;-0.732;2022-08-07T02:51:01;5;5;
46240;PMS5003;31961;52.416;-0.732;2022-08-07T02:53:33;6;6;
46240;PMS5003;31961;52.416;-0.732;2022-08-07T02:56:03;6;4;
46240;PMS5003;31961;52.416;-0.732;2022-08-07T02:58:34;4;4;
46240;PMS5003;31961;52.416;-0.732;2022-08-07T03:01:03;6;6;
46240;PMS5003;31961;52.416;-0.732;2022-08-07T03:03:33;7;5;
46240;PMS5003;31961;52.416;-0.732;2022-08-07T03:06:02;4;4;
46240;PMS5003;31961;52.416;-0.732;2022-08-07T03:08:31;5;5;
46240;PMS5003;31961;52.416;-0.732;2022-08-07T03:10:59;5;5;
46240;PMS5003;31961;52.416;-0.732;2022-08-07T03:13:28;5;5;
46240;PMS5003;31961;52.416;-0.732;2022-08-07T03:15:54;5;5;
46240;PMS5003;31961;52.416;-0.732;2022-08-07T03:18:22;6;5;
46240;PMS5003;31961;52.416;-0.732;2022-08-07T03:20:50;4;4;
46240;PMS5003;31961;52.416;-0.732;2022-08-07T03:23:17;6;5;
46240;PMS5003;31961;52.416;-0.732;2022-08-07T03:25:47;3;3;
46240;PMS5003;31961;52.416;-0.732;2022-08-07T03:28:15;4;4;
46240;PMS5003;31961;52.416;-0.732;2022-08-07T03:30:45;5;5;
46240;PMS5003;31961;52.416;-0.732;2022-08-07T03:33:12;4;4;
46240;PMS5003;31961;52.416;-0.732;2022-08-07T03:35:41;6;6;
46240;PMS5003;31961;52.416;-0.732;2022-08-07T03:38:09;4;4;
46240;PMS5003;31961;52.416;-0.732;2022-08-07T03:40:38;4;4;
46240;PMS5003;31961;52.416;-0.732;2022-08-07T03:43:06;6;6;
46240;PMS5003;31961;52.416;-0.732;2022-08-07T03:45:34;5;5;
46240;PMS5003;31961;52.416;-0.732;2022-08-07T03:48:01;3;3;
46240;PMS5003;31961;52.416;-0.732;2022-08-07T03:50:29;8;5;
46240;PMS5003;31961;52.416;-0.732;2022-08-07T03:52:57;5;4;
46240;PMS5003;31961;52.416;-0.732;2022-08-07T03:55:25;5;5;
46240;PMS5003;31961;52.416;-0.732;2022-08-07T03:57:54;6;6;
46240;PMS5003;31961;52.416;-0.732;2022-08-07T04:00:23;5;5;
46240;PMS5003;31961;52.416;-0.732;2022-08-07T04:02:50;5;5;
46240;PMS5003;31961;52.416;-0.732;2022-08-07T04:05:18;5;5;
46240;PMS5003;31961;52.416;-0.732;2022-08-07T04:07:46;7;5;
46240;PMS5003;31961;52.416;-0.732;2022-08-07T04:10:14;4;4;
46240;PMS5003;31961;52.416;-0.732;2022-08-07T04:12:41;7;7;
46240;PMS5003;31961;52.416;-0.732;2022-08-07T04:15:10;5;5;
46240;PMS5003;31961;52.416;-0.732;2022-08-07T04:17:40;5;5;
46240;PMS5003;31961;52.416;-0.732;2022-08-07T04:20:08;5;4;
46240;PMS5003;31961;52.416;-0.732;2022-08-07T04:22:37;7;7;
46240;PMS5003;31961;52.416;-0.732;2022-08-07T04:25:06;6;6;
46240;PMS5003;31961;52.416;-0.732;2022-08-07T04:27:34;6;5;
46240;PMS5003;31961;52.416;-0.732;2022-08-07T04:30:03;6;6;
46240;PMS5003;31961;52.416;-0.732;2022-08-07T04:32:32;7;5;
46240;PMS5003;31961;52.416;-0.732;2022-08-07T04:35:01;6;6;
46240;PMS5003;31961;52.416;-0.732;2022-08-07T04:37:30;6;6;
46240;PMS5003;31961;52.416;-0.732;2022-08-07T04:39:58;5;5;
46240;PMS5003;31961;52.416;-0.732;2022-08-07T04:42:26;10;6;
46240;PMS5003;31961;52.416;-0.732;2022-08-07T04:44:53;5;5;
46240;PMS5003;31961;52.416;-0.732;2022-08-07T04:47:21;7;7;
46240;PMS5003;31961;52.416;-0.732;2022-08-07T04:49:58;4;4;
46240;PMS5003;31961;52.416;-0.732;2022-08-07T04:52:35;7;7;
46240;PMS5003;31961;52.416;-0.732;2022-08-07T04:55:09;9;8;
46240;PMS5003;31961;52.416;-0.732;2022-08-07T04:57:46;7;6;
46240;PMS5003;31961;52.416;-0.732;2022-08-07T05:00:20;6;5;
46240;PMS5003;31961;52.416;-0.732;2022-08-07T05:02:59;7;6;
46240;PMS5003;31961;52.416;-0.732;2022-08-07T05:05:36;6;6;
46240;PMS5003;31961;52.416;-0.732;2022-08-07T05:08:11;4;4;
46240;PMS5003;31961;52.416;-0.732;2022-08-07T05:10:44;5;5;
46240;PMS5003;31961;52.416;-0.732;2022-08-07T05:13:21;7;6;
46240;PMS5003;31961;52.416;-0.732;2022-08-07T05:15:56;5;5;
46240;PMS5003;31961;52.416;-0.732;2022-08-07T05:18:26;6;6;
46240;PMS5003;31961;52.416;-0.732;2022-08-07T05:20:56;8;8;
46240;PMS5003;31961;52.416;-0.732;2022-08-07T05:23:29;6;6;
46240;PMS5003;31961;52.416;-0.732;2022-08-07T05:26:01;6;6;
46240;PMS5003;31961;52.416;-0.732;2022-08-07T05:28:32;6;5;
46240;PMS5003;31961;52.416;-0.732;2022-08-07T05:31:01;10;6;
46240;PMS5003;31961;52.416;-0.732;2022-08-07T05:33:30;7;6;
46240;PMS5003;31961;52.416;-0.732;2022-08-07T05:36:02;4;4;
46240;PMS5003;31961;52.416;-0.732;2022-08-07T05:38:32;5;5;
46240;PMS5003;31961;52.416;-0.732;2022-08-07T05:41:00;5;5;
46240;PMS5003;31961;52.416;-0.732;2022-08-07T05:43:28;8;7;
46240;PMS5003;31961;52.416;-0.732;2022-08-07T05:45:56;5;5;
46240;PMS5003;31961;52.416;-0.732;2022-08-07T05:48:24;4;4;
46240;PMS5003;31961;52.416;-0.732;2022-08-07T05:50:53;6;6;
46240;PMS5003;31961;52.416;-0.732;2022-08-07T05:53:21;6;6;
46240;PMS5003;31961;52.416;-0.732;2022-08-07T05:55:48;5;5;
46240;PMS5003;31961;52.416;-0.732;2022-08-07T05:58:17;6;6;
46240;PMS5003;31961;52.416;-0.732;2022-08-07T06:00:45;6;5;
46240;PMS5003;31961;52.416;-0.732;2022-08-07T06:03:14;7;7;
46240;PMS5003;31961;52.416;-0.732;2022-08-07T06:05:44;4;4;
46240;PMS5003;31961;52.416;-0.732;2022-08-07T06:08:13;5;5;
46240;PMS5003;31961;52.416;-0.732;2022-08-07T06:10:42;5;5;
46240;PMS5003;31961;52.416;-0.732;2022-08-07T06:13:10;7;5;
46240;PMS5003;31961;52.416;-0.732;2022-08-07T06:15:38;8;6;
46240;PMS5003;31961;52.416;-0.732;2022-08-07T06:18:06;5;4;
46240;PMS5003;31961;52.416;-0.732;2022-08-07T06:20:34;4;4;
46240;PMS5003;31961;52.416;-0.732;2022-08-07T06:23:02;5;5;
46240;PMS5003;31961;52.416;-0.732;2022-08-07T06:25:33;3;3;
46240;PMS5003;31961;52.416;-0.732;2022-08-07T06:28:02;5;4;
46240;PMS5003;31961;52.416;-0.732;2022-08-07T06:30:29;5;5;
46240;PMS5003;31961;52.416;-0.732;2022-08-07T06:32:57;3;3;
46240;PMS5003;31961;52.416;-0.732;2022-08-07T06:35:24;5;5;
46240;PMS5003;31961;52.416;-0.732;2022-08-07T06:37:51;4;4;
46240;PMS5003;31961;52.416;-0.732;2022-08-07T06:40:19;6;4;
46240;PMS5003;31961;52.416;-0.732;2022-08-07T06:42:46;3;3;
46240;PMS5003;31961;52.416;-0.732;2022-08-07T06:45:16;4;4;
46240;PMS5003;31961;52.416;-0.732;2022-08-07T06:47:46;4;4;
46240;PMS5003;31961;52.416;-0.732;2022-08-07T06:50:14;3;2;
46240;PMS5003;31961;52.416;-0.732;2022-08-07T06:52:42;2;2;
46240;PMS5003;31961;52.416;-0.732;2022-08-07T06:55:14;2;2;
46240;PMS5003;31961;52.416;-0.732;2022-08-07T06:57:45;2;2;
46240;PMS5003;31961;52.416;-0.732;2022-08-07T07:00:15;4;3;
46240;PMS5003;31961;52.416;-0.732;2022-08-07T07:02:43;3;3;
46240;PMS5003;31961;52.416;-0.732;2022-08-07T07:05:11;2;1;
46240;PMS5003;31961;52.416;-0.732;2022-08-07T07:07:39;2;2;
46240;PMS5003;31961;52.416;-0.732;2022-08-07T07:10:11;2;1;
46240;PMS5003;31961;52.416;-0.732;2022-08-07T07:12:40;3;3;
46240;PMS5003;31961;52.416;-0.732;2022-08-07T07:15:15;1;1;
46240;PMS5003;31961;52.416;-0.732;2022-08-07T07:17:47;2;2;
46240;PMS5003;31961;52.416;-0.732;2022-08-07T07:20:20;3;3;
46240;PMS5003;31961;52.416;-0.732;2022-08-07T07:22:51;2;2;
46240;PMS5003;31961;52.416;-0.732;2022-08-07T07:25:20;3;3;
46240;PMS5003;31961;52.416;-0.732;2022-08-07T07:27:49;0;0;
46240;PMS5003;31961;52.416;-0.732;2022-08-07T07:30:20;1;1;
46240;PMS5003;31961;52.416;-0.732;2022-08-07T07:32:53;1;1;
46240;PMS5003;31961;52.416;-0.732;2022-08-07T07:35:24;2;2;
46240;PMS5003;31961;52.416;-0.732;2022-08-07T07:37:53;1;1;
46240;PMS5003;31961;52.416;-0.732;2022-08-07T07:40:21;2;2;
46240;PMS5003;31961;52.416;-0.732;2022-08-07T07:42:50;3;3;
46240;PMS5003;31961;52.416;-0.732;2022-08-07T07:45:22;2;2;
46240;PMS5003;31961;52.416;-0.732;2022-08-07T07:47:52;2;2;
46240;PMS5003;31961;52.416;-0.732;2022-08-07T07:50:22;2;2;
46240;PMS5003;31961;52.416;-0.732;2022-08-07T07:52:53;2;2;
46240;PMS5003;31961;52.416;-0.732;2022-08-07T07:55:22;3;3;
46240;PMS5003;31961;52.416;-0.732;2022-08-07T07:57:52;2;2;
46240;PMS5003;31961;52.416;-0.732;2022-08-07T08:00:21;4;3;
46240;PMS5003;31961;52.416;-0.732;2022-08-07T08:02:54;3;3;
46240;PMS5003;31961;52.416;-0.732;2022-08-07T08:05:23;2;2;
46240;PMS5003;31961;52.416;-0.732;2022-08-07T08:07:50;3;3;
46240;PMS5003;31961;52.416;-0.732;2022-08-07T08:10:18;1;1;
46240;PMS5003;31961;52.416;-0.732;2022-08-07T08:12:46;2;1;
46240;PMS5003;31961;52.416;-0.732;2022-08-07T08:15:16;2;2;
46240;PMS5003;31961;52.416;-0.732;2022-08-07T08:17:43;2;2;
46240;PMS5003;31961;52.416;-0.732;2022-08-07T08:20:12;2;2;
46240;PMS5003;31961;52.416;-0.732;2022-08-07T08:22:42;3;3;
46240;PMS5003;31961;52.416;-0.732;2022-08-07T08:25:12;3;3;
46240;PMS5003;31961;52.416;-0.732;2022-08-07T08:27:42;2;2;
46240;PMS5003;31961;52.416;-0.732;2022-08-07T08:30:10;1;1;
46240;PMS5003;31961;52.416;-0.732;2022-08-07T08:32:40;1;1;
46240;PMS5003;31961;52.416;-0.732;2022-08-07T08:35:11;3;3;
46240;PMS5003;31961;52.416;-0.732;2022-08-07T08:37:45;3;3;
46240;PMS5003;31961;52.416;-0.732;2022-08-07T08:40:14;5;3;
46240;PMS5003;31961;52.416;-0.732;2022-08-07T08:42:51;2;2;
46240;PMS5003;31961;52.416;-0.732;2022-08-07T08:45:25;3;3;
46240;PMS5003;31961;52.416;-0.732;2022-08-07T08:48:03;3;3;
46240;PMS5003;31961;52.416;-0.732;2022-08-07T08:50:37;2;2;
46240;PMS5003;31961;52.416;-0.732;2022-08-07T08:53:13;3;3;
46240;PMS5003;31961;52.416;-0.732;2022-08-07T08:55:52;5;4;
46240;PMS5003;31961;52.416;-0.732;2022-08-07T08:58:28;4;3;
46240;PMS5003;31961;52.416;-0.732;2022-08-07T09:01:03;3;3;
46240;PMS5003;31961;52.416;-0.732;2022-08-07T09:03:42;4;3;
46240;PMS5003;31961;52.416;-0.732;2022-08-07T09:06:20;2;2;
46240;PMS5003;31961;52.416;-0.732;2022-08-07T09:09:16;3;3;
46240;PMS5003;31961;52.416;-0.732;2022-08-07T09:12:10;3;2;
46240;PMS5003;31961;52.416;-0.732;2022-08-07T09:14:59;3;3;
46240;PMS5003;31961;52.416;-0.732;2022-08-07T09:17:47;2;2;
46240;PMS5003;31961;52.416;-0.732;2022-08-07T09:20:31;3;3;
46240;PMS5003;31961;52.416;-0.732;2022-08-07T09:23:18;5;5;
46240;PMS5003;31961;52.416;-0.732;2022-08-07T09:29:01;3;3;
46240;PMS5003;31961;52.416;-0.732;2022-08-07T09:31:38;2;2;
46240;PMS5003;31961;52.416;-0.732;2022-08-07T09:34:23;3;2;
46240;PMS5003;31961;52.416;-0.732;2022-08-07T09:37:00;3;3;
46240;PMS5003;31961;52.416;-0.732;2022-08-07T09:39:38;6;5;
46240;PMS5003;31961;52.416;-0.732;2022-08-07T09:42:21;2;2;
46240;PMS5003;31961;52.416;-0.732;2022-08-07T09:45:11;2;2;
46240;PMS5003;31961;52.416;-0.732;2022-08-07T09:47:49;4;3;
46240;PMS5003;31961;52.416;-0.732;2022-08-07T09:50:35;2;2;
46240;PMS5003;31961;52.416;-0.732;2022-08-07T09:53:16;3;3;
46240;PMS5003;31961;52.416;-0.732;2022-08-07T09:55:52;5;5;
46240;PMS5003;31961;52.416;-0.732;2022-08-07T09:58:48;3;3;
46240;PMS5003;31961;52.416;-0.732;2022-08-07T10:01:31;3;3;
46240;PMS5003;31961;52.416;-0.732;2022-08-07T10:04:20;5;4;
46240;PMS5003;31961;52.416;-0.732;2022-08-07T10:07:03;3;3;
46240;PMS5003;31961;52.416;-0.732;2022-08-07T10:09:44;4;4;
46240;PMS5003;31961;52.416;-0.732;2022-08-07T10:12:29;4;3;
46240;PMS5003;31961;52.416;-0.732;2022-08-07T10:15:52;9;3;
46240;PMS5003;31961;52.416;-0.732;2022-08-07T10:18:35;4;3;
46240;PMS5003;31961;52.416;-0.732;2022-08-07T10:21:38;3;3;
46240;PMS5003;31961;52.416;-0.732;2022-08-07T10:24:22;5;4;
46240;PMS5003;31961;52.416;-0.732;2022-08-07T10:27:07;6;5;
46240;PMS5003;31961;52.416;-0.732;2022-08-07T10:30:04;3;3;
46240;PMS5003;31961;52.416;-0.732;2022-08-07T10:32:41;3;3;
46240;PMS5003;31961;52.416;-0.732;2022-08-07T10:35:25;3;3;
46240;PMS5003;31961;52.416;-0.732;2022-08-07T10:38:04;3;3;
46240;PMS5003;31961;52.416;-0.732;2022-08-07T10:40:49;3;2;
46240;PMS5003;31961;52.416;-0.732;2022-08-07T10:43:26;3;3;
46240;PMS5003;31961;52.416;-0.732;2022-08-07T10:45:59;5;5;
46240;PMS5003;31961;52.416;-0.732;2022-08-07T10:48:37;2;2;
46240;PMS5003;31961;52.416;-0.732;2022-08-07T10:51:13;4;4;
46240;PMS5003;31961;52.416;-0.732;2022-08-07T10:53:49;4;4;
46240;PMS5003;31961;52.416;-0.732;2022-08-07T10:56:26;4;4;
46240;PMS5003;31961;52.416;-0.732;2022-08-07T10:59:08;3;3;
46240;PMS5003;31961;52.416;-0.732;2022-08-07T11:01:48;3;3;
46240;PMS5003;31961;52.416;-0.732;2022-08-07T11:04:32;2;2;
46240;PMS5003;31961;52.416;-0.732;2022-08-07T11:07:27;4;3;
46240;PMS5003;31961;52.416;-0.732;2022-08-07T11:10:11;3;3;
46240;PMS5003;31961;52.416;-0.732;2022-08-07T11:12:55;3;3;
46240;PMS5003;31961;52.416;-0.732;2022-08-07T11:15:32;2;2;
46240;PMS5003;31961;52.416;-0.732;2022-08-07T11:18:15;6;4;
46240;PMS5003;31961;52.416;-0.732;2022-08-07T11:20:54;5;3;
46240;PMS5003;31961;52.416;-0.732;2022-08-07T11:23:33;3;3;
46240;PMS5003;31961;52.416;-0.732;2022-08-07T11:26:20;3;3;
46240;PMS5003;31961;52.416;-0.732;2022-08-07T11:29:02;4;4;
46240;PMS5003;31961;52.416;-0.732;2022-08-07T11:31:37;6;4;
46240;PMS5003;31961;52.416;-0.732;2022-08-07T11:34:16;3;3;
46240;PMS5003;31961;52.416;-0.732;2022-08-07T11:36:57;4;2;
46240;PMS5003;31961;52.416;-0.732;2022-08-07T11:39:42;3;3;
46240;PMS5003;31961;52.416;-0.732;2022-08-07T11:42:32;4;3;
46240;PMS5003;31961;52.416;-0.732;2022-08-07T11:45:17;4;3;
46240;PMS5003;31961;52.416;-0.732;2022-08-07T11:48:02;5;3;
46240;PMS5003;31961;52.416;-0.732;2022-08-07T11:50:46;3;3;
46240;PMS5003;31961;52.416;-0.732;2022-08-07T11:53:33;4;3;
46240;PMS5003;31961;52.416;-0.732;2022-08-07T11:56:12;4;3;
46240;PMS5003;31961;52.416;-0.732;2022-08-07T11:59:01;1;1;
46240;PMS5003;31961;52.416;-0.732;2022-08-07T12:01:44;4;4;
46240;PMS5003;31961;52.416;-0.732;2022-08-07T12:04:26;3;3;
46240;PMS5003;31961;52.416;-0.732;2022-08-07T12:07:08;4;3;
46240;PMS5003;31961;52.416;-0.732;2022-08-07T12:09:47;3;3;
46240;PMS5003;31961;52.416;-0.732;2022-08-07T12:12:21;4;4;
46240;PMS5003;31961;52.416;-0.732;2022-08-07T12:14:54;4;4;
46240;PMS5003;31961;52.416;-0.732;2022-08-07T12:17:31;3;3;
46240;PMS5003;31961;52.416;-0.732;2022-08-07T12:20:05;3;3;
46240;PMS5003;31961;52.416;-0.732;2022-08-07T12:22:38;3;3;
46240;PMS5003;31961;52.416;-0.732;2022-08-07T12:25:14;5;3;
46240;PMS5003;31961;52.416;-0.732;2022-08-07T12:27:48;4;4;
46240;PMS5003;31961;52.416;-0.732;2022-08-07T12:30:20;3;3;
46240;PMS5003;31961;52.416;-0.732;2022-08-07T12:33:00;3;2;
46240;PMS5003;31961;52.416;-0.732;2022-08-07T12:35:31;3;3;
46240;PMS5003;31961;52.416;-0.732;2022-08-07T12:38:01;4;4;
46240;PMS5003;31961;52.416;-0.732;2022-08-07T12:40:31;4;4;
46240;PMS5003;31961;52.416;-0.732;2022-08-07T12:43:00;4;4;
46240;PMS5003;31961;52.416;-0.732;2022-08-07T12:45:32;3;2;
46240;PMS5003;31961;52.416;-0.732;2022-08-07T12:48:06;2;1;
46240;PMS5003;31961;52.416;-0.732;2022-08-07T12:50:41;2;2;
46240;PMS5003;31961;52.416;-0.732;2022-08-07T12:53:18;4;3;
46240;PMS5003;31961;52.416;-0.732;2022-08-07T12:55:57;3;2;
46240;PMS5003;31961;52.416;-0.732;2022-08-07T12:58:28;3;3;
46240;PMS5003;31961;52.416;-0.732;2022-08-07T13:01:03;3;3;
46240;PMS5003;31961;52.416;-0.732;2022-08-07T13:03:51;1;1;
46240;PMS5003;31961;52.416;-0.732;2022-08-07T13:06:35;2;2;
46240;PMS5003;31961;52.416;-0.732;2022-08-07T13:09:16;2;2;
46240;PMS5003;31961;52.416;-0.732;2022-08-07T13:12:00;3;2;
46240;PMS5003;31961;52.416;-0.732;2022-08-07T13:14:41;4;4;
46240;PMS5003;31961;52.416;-0.732;2022-08-07T13:17:16;5;4;
46240;PMS5003;31961;52.416;-0.732;2022-08-07T13:19:49;4;3;
46240;PMS5003;31961;52.416;-0.732;2022-08-07T13:22:23;4;4;
46240;PMS5003;31961;52.416;-0.732;2022-08-07T13:24:58;3;3;
46240;PMS5003;31961;52.416;-0.732;2022-08-07T13:27:30;4;3;
46240;PMS5003;31961;52.416;-0.732;2022-08-07T13:30:03;3;3;
46240;PMS5003;31961;52.416;-0.732;2022-08-07T13:32:37;2;2;
46240;PMS5003;31961;52.416;-0.732;2022-08-07T13:35:10;3;3;
46240;PMS5003;31961;52.416;-0.732;2022-08-07T13:37:45;3;3;
46240;PMS5003;31961;52.416;-0.732;2022-08-07T13:40:22;5;4;
46240;PMS5003;31961;52.416;-0.732;2022-08-07T13:42:56;4;3;
46240;PMS5003;31961;52.416;-0.732;2022-08-07T13:45:27;4;3;
46240;PMS5003;31961;52.416;-0.732;2022-08-07T13:47:56;4;3;
46240;PMS5003;31961;52.416;-0.732;2022-08-07T13:50:24;2;2;
46240;PMS5003;31961;52.416;-0.732;2022-08-07T13:52:54;1;1;
46240;PMS5003;31961;52.416;-0.732;2022-08-07T13:55:23;2;2;
46240;PMS5003;31961;52.416;-0.732;2022-08-07T13:57:58;3;3;
46240;PMS5003;31961;52.416;-0.732;2022-08-07T14:00:34;4;3;
46240;PMS5003;31961;52.416;-0.732;2022-08-07T14:03:04;5;4;
46240;PMS5003;31961;52.416;-0.732;2022-08-07T14:05:32;5;4;
46240;PMS5003;31961;52.416;-0.732;2022-08-07T14:08:00;3;2;
46240;PMS5003;31961;52.416;-0.732;2022-08-07T14:10:32;7;7;
46240;PMS5003;31961;52.416;-0.732;2022-08-07T14:13:00;5;4;
46240;PMS5003;31961;52.416;-0.732;2022-08-07T14:15:33;3;2;
46240;PMS5003;31961;52.416;-0.732;2022-08-07T14:18:05;3;3;
46240;PMS5003;31961;52.416;-0.732;2022-08-07T14:20:35;6;6;
46240;PMS5003;31961;52.416;-0.732;2022-08-07T14:23:05;7;7;
46240;PMS5003;31961;52.416;-0.732;2022-08-07T14:25:36;3;2;
46240;PMS5003;31961;52.416;-0.732;2022-08-07T14:28:07;2;2;
46240;PMS5003;31961;52.416;-0.732;2022-08-07T14:30:36;2;2;
46240;PMS5003;31961;52.416;-0.732;2022-08-07T14:33:04;12;9;
46240;PMS5003;31961;52.416;-0.732;2022-08-07T14:35:35;4;3;
46240;PMS5003;31961;52.416;-0.732;2022-08-07T14:38:03;3;2;
46240;PMS5003;31961;52.416;-0.732;2022-08-07T14:40:31;3;3;
46240;PMS5003;31961;52.416;-0.732;2022-08-07T14:43:02;1;1;
46240;PMS5003;31961;52.416;-0.732;2022-08-07T14:45:32;4;4;
46240;PMS5003;31961;52.416;-0.732;2022-08-07T14:48:07;8;7;
46240;PMS5003;31961;52.416;-0.732;2022-08-07T14:50:40;1;1;
46240;PMS5003;31961;52.416;-0.732;2022-08-07T14:53:10;4;4;
46240;PMS5003;31961;52.416;-0.732;2022-08-07T14:55:39;2;2;
46240;PMS5003;31961;52.416;-0.732;2022-08-07T14:58:07;1;1;
46240;PMS5003;31961;52.416;-0.732;2022-08-07T15:00:38;2;2;
46240;PMS5003;31961;52.416;-0.732;2022-08-07T15:03:08;2;2;
46240;PMS5003;31961;52.416;-0.732;2022-08-07T15:05:37;1;1;
46240;PMS5003;31961;52.416;-0.732;2022-08-07T15:08:06;2;2;
46240;PMS5003;31961;52.416;-0.732;2022-08-07T15:10:38;2;2;
46240;PMS5003;31961;52.416;-0.732;2022-08-07T15:13:10;0;0;
46240;PMS5003;31961;52.416;-0.732;2022-08-07T15:15:50;1;1;
46240;PMS5003;31961;52.416;-0.732;2022-08-07T15:18:29;2;2;
46240;PMS5003;31961;52.416;-0.732;2022-08-07T15:21:02;3;2;
46240;PMS5003;31961;52.416;-0.732;2022-08-07T15:23:33;1;1;
46240;PMS5003;31961;52.416;-0.732;2022-08-07T15:26:05;2;2;
46240;PMS5003;31961;52.416;-0.732;2022-08-07T15:28:35;1;1;
46240;PMS5003;31961;52.416;-0.732;2022-08-07T15:31:04;2;2;
46240;PMS5003;31961;52.416;-0.732;2022-08-07T15:33:37;1;1;
46240;PMS5003;31961;52.416;-0.732;2022-08-07T15:36:07;1;0;
46240;PMS5003;31961;52.416;-0.732;2022-08-07T15:38:37;2;2;
46240;PMS5003;31961;52.416;-0.732;2022-08-07T15:41:08;1;1;
46240;PMS5003;31961;52.416;-0.732;2022-08-07T15:43:38;2;2;
46240;PMS5003;31961;52.416;-0.732;2022-08-07T15:46:14;2;2;
46240;PMS5003;31961;52.416;-0.732;2022-08-07T15:48:43;3;2;
46240;PMS5003;31961;52.416;-0.732;2022-08-07T15:51:14;2;2;
46240;PMS5003;31961;52.416;-0.732;2022-08-07T15:53:45;2;2;
46240;PMS5003;31961;52.416;-0.732;2022-08-07T15:56:16;3;2;
46240;PMS5003;31961;52.416;-0.732;2022-08-07T15:58:48;2;1;
46240;PMS5003;31961;52.416;-0.732;2022-08-07T16:01:20;2;2;
46240;PMS5003;31961;52.416;-0.732;2022-08-07T16:03:50;2;2;
46240;PMS5003;31961;52.416;-0.732;2022-08-07T16:06:23;3;2;
46240;PMS5003;31961;52.416;-0.732;2022-08-07T16:08:55;4;3;
46240;PMS5003;31961;52.416;-0.732;2022-08-07T16:11:31;2;2;
46240;PMS5003;31961;52.416;-0.732;2022-08-07T16:14:10;1;1;
46240;PMS5003;31961;52.416;-0.732;2022-08-07T16:16:53;2;2;
46240;PMS5003;31961;52.416;-0.732;2022-08-07T16:19:51;2;2;
46240;PMS5003;31961;52.416;-0.732;2022-08-07T16:22:35;2;2;
46240;PMS5003;31961;52.416;-0.732;2022-08-07T16:25:12;2;2;
46240;PMS5003;31961;52.416;-0.732;2022-08-07T16:27:58;3;2;
46240;PMS5003;31961;52.416;-0.732;2022-08-07T16:30:33;0;0;
46240;PMS5003;31961;52.416;-0.732;2022-08-07T16:33:13;2;2;
46240;PMS5003;31961;52.416;-0.732;2022-08-07T16:35:42;4;4;
46240;PMS5003;31961;52.416;-0.732;2022-08-07T16:38:19;2;1;
46240;PMS5003;31961;52.416;-0.732;2022-08-07T16:41:04;2;2;
46240;PMS5003;31961;52.416;-0.732;2022-08-07T16:44:09;2;2;
46240;PMS5003;31961;52.416;-0.732;2022-08-07T16:47:04;3;2;
46240;PMS5003;31961;52.416;-0.732;2022-08-07T16:50:18;2;2;
46240;PMS5003;31961;52.416;-0.732;2022-08-07T16:53:01;3;3;
46240;PMS5003;31961;52.416;-0.732;2022-08-07T16:55:45;3;3;
46240;PMS5003;31961;52.416;-0.732;2022-08-07T16:58:21;4;3;
46240;PMS5003;31961;52.416;-0.732;2022-08-07T17:00:59;2;2;
46240;PMS5003;31961;52.416;-0.732;2022-08-07T17:03:49;3;3;
46240;PMS5003;31961;52.416;-0.732;2022-08-07T17:06:30;3;3;
46240;PMS5003;31961;52.416;-0.732;2022-08-07T17:09:10;2;2;
46240;PMS5003;31961;52.416;-0.732;2022-08-07T17:11:45;2;2;
46240;PMS5003;31961;52.416;-0.732;2022-08-07T17:14:19;6;4;
46240;PMS5003;31961;52.416;-0.732;2022-08-07T17:16:56;3;3;